sensor_id;sensor_type;location;lat;lon;timestamp;P1;durP1;ratioP1;P2;durP2;ratioP2
42668;SDS011;29384;42.028;21.388;2022-11-02T00:01:22;42.25;;;18.48;;
42668;SDS011;29384;42.028;21.388;2022-11-02T00:03:48;41.88;;;17.63;;
42668;SDS011;29384;42.028;21.388;2022-11-02T00:06:13;55.42;;;18.55;;
42668;SDS011;29384;42.028;21.388;2022-11-02T00:08:39;48.63;;;19.08;;
42668;SDS011;29384;42.028;21.388;2022-11-02T00:11:05;41.25;;;17.15;;
42668;SDS011;29384;42.028;21.388;2022-11-02T00:13:30;54.50;;;18.48;;
42668;SDS011;29384;42.028;21.388;2022-11-02T00:15:58;44.92;;;16.13;;
42668;SDS011;29384;42.028;21.388;2022-11-02T00:18:26;57.35;;;17.33;;
42668;SDS011;29384;42.028;21.388;2022-11-02T00:20:52;60.38;;;16.77;;
42668;SDS011;29384;42.028;21.388;2022-11-02T00:23:17;39.85;;;16.90;;
42668;SDS011;29384;42.028;21.388;2022-11-02T00:25:44;44.63;;;16.67;;
42668;SDS011;29384;42.028;21.388;2022-11-02T00:28:12;41.25;;;16.55;;
42668;SDS011;29384;42.028;21.388;2022-11-02T00:30:38;47.38;;;17.05;;
42668;SDS011;29384;42.028;21.388;2022-11-02T00:33:04;38.15;;;16.48;;
42668;SDS011;29384;42.028;21.388;2022-11-02T00:35:32;41.72;;;16.35;;
42668;SDS011;29384;42.028;21.388;2022-11-02T00:37:58;41.13;;;15.60;;
42668;SDS011;29384;42.028;21.388;2022-11-02T00:40:24;35.65;;;15.48;;
42668;SDS011;29384;42.028;21.388;2022-11-02T00:42:49;42.20;;;15.50;;
42668;SDS011;29384;42.028;21.388;2022-11-02T00:45:17;43.05;;;14.85;;
42668;SDS011;29384;42.028;21.388;2022-11-02T00:47:42;38.53;;;14.18;;
42668;SDS011;29384;42.028;21.388;2022-11-02T00:50:11;48.67;;;15.57;;
42668;SDS011;29384;42.028;21.388;2022-11-02T00:52:39;47.70;;;15.43;;
42668;SDS011;29384;42.028;21.388;2022-11-02T00:55:06;38.45;;;13.38;;
42668;SDS011;29384;42.028;21.388;2022-11-02T00:57:33;31.85;;;12.98;;
42668;SDS011;29384;42.028;21.388;2022-11-02T00:59:59;37.75;;;13.88;;
42668;SDS011;29384;42.028;21.388;2022-11-02T01:02:24;37.03;;;15.05;;
42668;SDS011;29384;42.028;21.388;2022-11-02T01:04:50;33.00;;;14.23;;
42668;SDS011;29384;42.028;21.388;2022-11-02T01:07:16;48.45;;;15.38;;
42668;SDS011;29384;42.028;21.388;2022-11-02T01:09:41;38.88;;;14.10;;
42668;SDS011;29384;42.028;21.388;2022-11-02T01:12:07;36.22;;;13.90;;
42668;SDS011;29384;42.028;21.388;2022-11-02T01:14:32;28.00;;;12.00;;
42668;SDS011;29384;42.028;21.388;2022-11-02T01:16:58;57.35;;;12.20;;
42668;SDS011;29384;42.028;21.388;2022-11-02T01:19:24;25.13;;;9.48;;
42668;SDS011;29384;42.028;21.388;2022-11-02T01:21:49;17.40;;;7.85;;
42668;SDS011;29384;42.028;21.388;2022-11-02T01:24:15;23.15;;;8.70;;
42668;SDS011;29384;42.028;21.388;2022-11-02T01:26:40;15.35;;;8.10;;
42668;SDS011;29384;42.028;21.388;2022-11-02T01:29:06;23.33;;;8.50;;
42668;SDS011;29384;42.028;21.388;2022-11-02T01:31:31;28.25;;;9.52;;
42668;SDS011;29384;42.028;21.388;2022-11-02T01:33:57;19.27;;;7.20;;
42668;SDS011;29384;42.028;21.388;2022-11-02T01:39:44;30.83;;;8.40;;
42668;SDS011;29384;42.028;21.388;2022-11-02T01:42:44;29.33;;;9.27;;
42668;SDS011;29384;42.028;21.388;2022-11-02T01:45:03;18.15;;;7.93;;
42668;SDS011;29384;42.028;21.388;2022-11-02T01:47:30;31.02;;;9.90;;
42668;SDS011;29384;42.028;21.388;2022-11-02T01:50:12;24.38;;;8.60;;
42668;SDS011;29384;42.028;21.388;2022-11-02T01:52:42;41.92;;;8.27;;
42668;SDS011;29384;42.028;21.388;2022-11-02T01:57:40;43.05;;;8.45;;
42668;SDS011;29384;42.028;21.388;2022-11-02T02:00:10;19.73;;;8.32;;
42668;SDS011;29384;42.028;21.388;2022-11-02T02:02:54;22.88;;;7.35;;
42668;SDS011;29384;42.028;21.388;2022-11-02T02:05:26;23.65;;;6.50;;
42668;SDS011;29384;42.028;21.388;2022-11-02T02:07:54;28.73;;;7.10;;
42668;SDS011;29384;42.028;21.388;2022-11-02T02:10:23;16.05;;;6.57;;
42668;SDS011;29384;42.028;21.388;2022-11-02T02:12:48;15.50;;;8.32;;
42668;SDS011;29384;42.028;21.388;2022-11-02T02:15:14;13.20;;;6.82;;
42668;SDS011;29384;42.028;21.388;2022-11-02T02:20:10;25.27;;;8.20;;
42668;SDS011;29384;42.028;21.388;2022-11-02T02:26:06;25.00;;;7.28;;
42668;SDS011;29384;42.028;21.388;2022-11-02T02:28:52;20.13;;;6.75;;
42668;SDS011;29384;42.028;21.388;2022-11-02T02:33:59;23.10;;;8.23;;
42668;SDS011;29384;42.028;21.388;2022-11-02T02:36:35;17.08;;;6.03;;
42668;SDS011;29384;42.028;21.388;2022-11-02T02:42:29;17.50;;;5.97;;
42668;SDS011;29384;42.028;21.388;2022-11-02T02:45:10;15.27;;;6.65;;
42668;SDS011;29384;42.028;21.388;2022-11-02T02:47:53;20.85;;;7.22;;
42668;SDS011;29384;42.028;21.388;2022-11-02T02:57:08;22.98;;;7.10;;
42668;SDS011;29384;42.028;21.388;2022-11-02T02:59:42;15.88;;;7.03;;
42668;SDS011;29384;42.028;21.388;2022-11-02T03:02:12;25.63;;;7.60;;
42668;SDS011;29384;42.028;21.388;2022-11-02T03:04:41;10.68;;;6.13;;
42668;SDS011;29384;42.028;21.388;2022-11-02T03:07:07;16.83;;;6.05;;
42668;SDS011;29384;42.028;21.388;2022-11-02T03:09:42;16.60;;;7.60;;
42668;SDS011;29384;42.028;21.388;2022-11-02T03:12:24;25.23;;;8.18;;
42668;SDS011;29384;42.028;21.388;2022-11-02T03:17:49;23.73;;;9.63;;
42668;SDS011;29384;42.028;21.388;2022-11-02T03:26:29;31.38;;;9.75;;
42668;SDS011;29384;42.028;21.388;2022-11-02T03:28:58;17.08;;;10.60;;
42668;SDS011;29384;42.028;21.388;2022-11-02T03:40:32;47.13;;;14.45;;
42668;SDS011;29384;42.028;21.388;2022-11-02T03:43:03;32.10;;;14.25;;
42668;SDS011;29384;42.028;21.388;2022-11-02T03:45:37;29.20;;;12.95;;
42668;SDS011;29384;42.028;21.388;2022-11-02T03:48:06;27.20;;;11.73;;
42668;SDS011;29384;42.028;21.388;2022-11-02T03:50:35;56.33;;;12.75;;
42668;SDS011;29384;42.028;21.388;2022-11-02T03:53:05;32.42;;;14.65;;
42668;SDS011;29384;42.028;21.388;2022-11-02T03:55:36;40.50;;;16.65;;
42668;SDS011;29384;42.028;21.388;2022-11-02T03:58:08;52.28;;;20.10;;
42668;SDS011;29384;42.028;21.388;2022-11-02T04:00:35;44.13;;;19.80;;
42668;SDS011;29384;42.028;21.388;2022-11-02T04:03:09;42.20;;;18.73;;
42668;SDS011;29384;42.028;21.388;2022-11-02T04:05:36;52.20;;;19.50;;
42668;SDS011;29384;42.028;21.388;2022-11-02T04:08:01;45.13;;;20.42;;
42668;SDS011;29384;42.028;21.388;2022-11-02T04:13:30;46.17;;;17.25;;
42668;SDS011;29384;42.028;21.388;2022-11-02T04:16:15;32.45;;;16.05;;
42668;SDS011;29384;42.028;21.388;2022-11-02T04:18:41;32.72;;;12.55;;
42668;SDS011;29384;42.028;21.388;2022-11-02T04:23:51;32.42;;;12.77;;
42668;SDS011;29384;42.028;21.388;2022-11-02T04:26:35;43.97;;;13.23;;
42668;SDS011;29384;42.028;21.388;2022-11-02T04:29:01;25.70;;;13.10;;
42668;SDS011;29384;42.028;21.388;2022-11-02T04:31:27;39.35;;;13.52;;
42668;SDS011;29384;42.028;21.388;2022-11-02T04:33:53;32.05;;;13.15;;
42668;SDS011;29384;42.028;21.388;2022-11-02T04:36:18;32.38;;;14.52;;
42668;SDS011;29384;42.028;21.388;2022-11-02T04:38:44;28.88;;;13.82;;
42668;SDS011;29384;42.028;21.388;2022-11-02T04:41:10;39.50;;;14.15;;
42668;SDS011;29384;42.028;21.388;2022-11-02T04:43:59;29.92;;;12.48;;
42668;SDS011;29384;42.028;21.388;2022-11-02T04:46:26;29.55;;;12.50;;
42668;SDS011;29384;42.028;21.388;2022-11-02T04:48:53;29.77;;;13.93;;
42668;SDS011;29384;42.028;21.388;2022-11-02T04:51:19;29.77;;;12.13;;
42668;SDS011;29384;42.028;21.388;2022-11-02T04:53:46;30.55;;;13.65;;
42668;SDS011;29384;42.028;21.388;2022-11-02T04:56:12;40.47;;;15.38;;
42668;SDS011;29384;42.028;21.388;2022-11-02T04:58:37;30.77;;;15.23;;
42668;SDS011;29384;42.028;21.388;2022-11-02T05:01:07;38.80;;;17.80;;
42668;SDS011;29384;42.028;21.388;2022-11-02T05:03:36;46.08;;;16.58;;
42668;SDS011;29384;42.028;21.388;2022-11-02T05:06:01;50.33;;;19.00;;
42668;SDS011;29384;42.028;21.388;2022-11-02T05:08:27;52.60;;;19.33;;
42668;SDS011;29384;42.028;21.388;2022-11-02T05:10:56;52.97;;;20.20;;
42668;SDS011;29384;42.028;21.388;2022-11-02T05:13:23;59.55;;;20.15;;
42668;SDS011;29384;42.028;21.388;2022-11-02T05:15:49;43.88;;;17.55;;
42668;SDS011;29384;42.028;21.388;2022-11-02T05:18:15;39.95;;;17.90;;
42668;SDS011;29384;42.028;21.388;2022-11-02T05:20:41;43.85;;;15.93;;
42668;SDS011;29384;42.028;21.388;2022-11-02T05:23:07;35.97;;;15.25;;
42668;SDS011;29384;42.028;21.388;2022-11-02T05:25:33;31.75;;;15.43;;
42668;SDS011;29384;42.028;21.388;2022-11-02T05:27:58;44.30;;;17.58;;
42668;SDS011;29384;42.028;21.388;2022-11-02T05:30:24;58.22;;;19.63;;
42668;SDS011;29384;42.028;21.388;2022-11-02T05:32:54;48.47;;;20.35;;
42668;SDS011;29384;42.028;21.388;2022-11-02T05:35:20;54.08;;;20.23;;
42668;SDS011;29384;42.028;21.388;2022-11-02T05:41:07;56.65;;;18.33;;
42668;SDS011;29384;42.028;21.388;2022-11-02T05:43:33;41.22;;;16.92;;
42668;SDS011;29384;42.028;21.388;2022-11-02T05:45:59;39.53;;;17.70;;
42668;SDS011;29384;42.028;21.388;2022-11-02T05:48:26;50.70;;;18.55;;
42668;SDS011;29384;42.028;21.388;2022-11-02T05:50:58;41.08;;;16.60;;
42668;SDS011;29384;42.028;21.388;2022-11-02T05:53:25;34.95;;;16.35;;
42668;SDS011;29384;42.028;21.388;2022-11-02T05:55:51;31.67;;;14.07;;
42668;SDS011;29384;42.028;21.388;2022-11-02T05:58:16;39.92;;;14.75;;
42668;SDS011;29384;42.028;21.388;2022-11-02T06:00:42;36.53;;;14.15;;
42668;SDS011;29384;42.028;21.388;2022-11-02T06:03:07;43.35;;;14.88;;
42668;SDS011;29384;42.028;21.388;2022-11-02T06:05:33;33.88;;;14.68;;
42668;SDS011;29384;42.028;21.388;2022-11-02T06:11:20;26.35;;;14.10;;
42668;SDS011;29384;42.028;21.388;2022-11-02T06:13:47;38.03;;;16.15;;
42668;SDS011;29384;42.028;21.388;2022-11-02T06:16:15;37.55;;;15.55;;
42668;SDS011;29384;42.028;21.388;2022-11-02T06:18:41;35.53;;;16.13;;
42668;SDS011;29384;42.028;21.388;2022-11-02T06:21:07;44.50;;;18.27;;
42668;SDS011;29384;42.028;21.388;2022-11-02T06:23:33;44.33;;;16.15;;
42668;SDS011;29384;42.028;21.388;2022-11-02T06:25:59;35.65;;;16.05;;
42668;SDS011;29384;42.028;21.388;2022-11-02T06:28:25;44.08;;;14.35;;
42668;SDS011;29384;42.028;21.388;2022-11-02T06:30:52;29.88;;;12.98;;
42668;SDS011;29384;42.028;21.388;2022-11-02T06:33:17;29.15;;;11.63;;
42668;SDS011;29384;42.028;21.388;2022-11-02T06:35:44;25.75;;;11.93;;
42668;SDS011;29384;42.028;21.388;2022-11-02T06:41:32;30.50;;;11.82;;
42668;SDS011;29384;42.028;21.388;2022-11-02T06:43:58;30.17;;;11.82;;
42668;SDS011;29384;42.028;21.388;2022-11-02T06:46:23;29.13;;;11.35;;
42668;SDS011;29384;42.028;21.388;2022-11-02T06:48:49;31.60;;;10.52;;
42668;SDS011;29384;42.028;21.388;2022-11-02T06:51:14;21.17;;;9.90;;
42668;SDS011;29384;42.028;21.388;2022-11-02T06:53:40;25.58;;;10.02;;
42668;SDS011;29384;42.028;21.388;2022-11-02T06:56:06;24.45;;;10.57;;
42668;SDS011;29384;42.028;21.388;2022-11-02T06:58:31;36.13;;;11.45;;
42668;SDS011;29384;42.028;21.388;2022-11-02T07:01:00;35.70;;;12.25;;
42668;SDS011;29384;42.028;21.388;2022-11-02T07:05:56;26.98;;;10.13;;
42668;SDS011;29384;42.028;21.388;2022-11-02T07:11:43;23.60;;;10.77;;
42668;SDS011;29384;42.028;21.388;2022-11-02T07:14:09;20.55;;;10.30;;
42668;SDS011;29384;42.028;21.388;2022-11-02T07:16:34;28.55;;;9.45;;
42668;SDS011;29384;42.028;21.388;2022-11-02T07:19:00;29.60;;;9.18;;
42668;SDS011;29384;42.028;21.388;2022-11-02T07:21:25;25.00;;;10.63;;
42668;SDS011;29384;42.028;21.388;2022-11-02T07:23:51;32.13;;;10.05;;
42668;SDS011;29384;42.028;21.388;2022-11-02T07:26:19;24.55;;;9.85;;
42668;SDS011;29384;42.028;21.388;2022-11-02T07:28:45;34.92;;;9.57;;
42668;SDS011;29384;42.028;21.388;2022-11-02T07:31:11;37.22;;;12.23;;
42668;SDS011;29384;42.028;21.388;2022-11-02T07:33:41;37.55;;;10.05;;
42668;SDS011;29384;42.028;21.388;2022-11-02T07:36:07;27.23;;;9.63;;
42668;SDS011;29384;42.028;21.388;2022-11-02T07:38:32;31.75;;;9.13;;
42668;SDS011;29384;42.028;21.388;2022-11-02T07:41:01;28.88;;;9.85;;
42668;SDS011;29384;42.028;21.388;2022-11-02T07:43:29;24.73;;;8.45;;
42668;SDS011;29384;42.028;21.388;2022-11-02T07:45:54;22.67;;;8.02;;
42668;SDS011;29384;42.028;21.388;2022-11-02T07:48:20;29.02;;;8.75;;
42668;SDS011;29384;42.028;21.388;2022-11-02T07:50:45;40.28;;;9.40;;
42668;SDS011;29384;42.028;21.388;2022-11-02T07:57:16;23.42;;;9.15;;
42668;SDS011;29384;42.028;21.388;2022-11-02T07:59:41;22.25;;;8.73;;
42668;SDS011;29384;42.028;21.388;2022-11-02T08:02:08;13.40;;;7.30;;
42668;SDS011;29384;42.028;21.388;2022-11-02T08:04:37;21.50;;;8.50;;
42668;SDS011;29384;42.028;21.388;2022-11-02T08:10:25;10.82;;;6.75;;
42668;SDS011;29384;42.028;21.388;2022-11-02T08:12:51;14.15;;;6.75;;
42668;SDS011;29384;42.028;21.388;2022-11-02T08:15:16;19.20;;;7.63;;
42668;SDS011;29384;42.028;21.388;2022-11-02T08:17:42;20.98;;;8.45;;
42668;SDS011;29384;42.028;21.388;2022-11-02T08:20:10;16.95;;;7.50;;
42668;SDS011;29384;42.028;21.388;2022-11-02T08:25:58;13.70;;;7.30;;
42668;SDS011;29384;42.028;21.388;2022-11-02T08:28:28;18.35;;;7.18;;
42668;SDS011;29384;42.028;21.388;2022-11-02T08:31:04;16.17;;;7.20;;
42668;SDS011;29384;42.028;21.388;2022-11-02T08:33:31;13.38;;;6.80;;
42668;SDS011;29384;42.028;21.388;2022-11-02T08:36:01;12.18;;;5.88;;
42668;SDS011;29384;42.028;21.388;2022-11-02T08:41:49;19.55;;;6.38;;
42668;SDS011;29384;42.028;21.388;2022-11-02T08:44:15;9.20;;;5.13;;
42668;SDS011;29384;42.028;21.388;2022-11-02T08:46:41;10.98;;;5.35;;
42668;SDS011;29384;42.028;21.388;2022-11-02T08:49:07;13.95;;;6.70;;
42668;SDS011;29384;42.028;21.388;2022-11-02T08:51:32;15.57;;;5.05;;
42668;SDS011;29384;42.028;21.388;2022-11-02T08:53:57;11.30;;;5.72;;
42668;SDS011;29384;42.028;21.388;2022-11-02T08:56:23;15.38;;;6.00;;
42668;SDS011;29384;42.028;21.388;2022-11-02T08:58:48;11.77;;;6.55;;
42668;SDS011;29384;42.028;21.388;2022-11-02T09:01:14;21.48;;;7.80;;
42668;SDS011;29384;42.028;21.388;2022-11-02T09:03:39;20.45;;;7.65;;
42668;SDS011;29384;42.028;21.388;2022-11-02T09:06:05;45.60;;;7.40;;
42668;SDS011;29384;42.028;21.388;2022-11-02T09:12:21;19.75;;;6.65;;
42668;SDS011;29384;42.028;21.388;2022-11-02T09:14:46;18.98;;;6.25;;
42668;SDS011;29384;42.028;21.388;2022-11-02T09:17:11;21.15;;;6.10;;
42668;SDS011;29384;42.028;21.388;2022-11-02T09:19:37;13.73;;;6.47;;
42668;SDS011;29384;42.028;21.388;2022-11-02T09:22:02;10.82;;;5.70;;
42668;SDS011;29384;42.028;21.388;2022-11-02T09:24:28;26.08;;;6.57;;
42668;SDS011;29384;42.028;21.388;2022-11-02T09:26:53;18.80;;;5.82;;
42668;SDS011;29384;42.028;21.388;2022-11-02T09:29:19;16.35;;;5.95;;
42668;SDS011;29384;42.028;21.388;2022-11-02T09:31:44;17.15;;;6.05;;
42668;SDS011;29384;42.028;21.388;2022-11-02T09:34:12;14.60;;;5.35;;
42668;SDS011;29384;42.028;21.388;2022-11-02T09:36:38;19.65;;;6.82;;
42668;SDS011;29384;42.028;21.388;2022-11-02T09:45:24;15.73;;;5.85;;
42668;SDS011;29384;42.028;21.388;2022-11-02T09:53:21;23.10;;;6.38;;
42668;SDS011;29384;42.028;21.388;2022-11-02T09:55:53;17.65;;;6.85;;
42668;SDS011;29384;42.028;21.388;2022-11-02T09:58:24;14.95;;;5.88;;
42668;SDS011;29384;42.028;21.388;2022-11-02T10:00:58;12.85;;;5.85;;
42668;SDS011;29384;42.028;21.388;2022-11-02T10:03:41;29.75;;;7.90;;
42668;SDS011;29384;42.028;21.388;2022-11-02T10:06:18;24.60;;;7.47;;
42668;SDS011;29384;42.028;21.388;2022-11-02T10:11:56;28.92;;;8.25;;
42668;SDS011;29384;42.028;21.388;2022-11-02T10:14:29;20.15;;;8.60;;
42668;SDS011;29384;42.028;21.388;2022-11-02T10:17:08;31.60;;;9.32;;
42668;SDS011;29384;42.028;21.388;2022-11-02T10:19:39;25.40;;;9.35;;
42668;SDS011;29384;42.028;21.388;2022-11-02T10:25:30;17.15;;;6.88;;
42668;SDS011;29384;42.028;21.388;2022-11-02T10:27:58;21.90;;;10.50;;
42668;SDS011;29384;42.028;21.388;2022-11-02T10:30:29;27.77;;;11.20;;
42668;SDS011;29384;42.028;21.388;2022-11-02T10:32:56;20.73;;;10.63;;
42668;SDS011;29384;42.028;21.388;2022-11-02T10:36:06;36.47;;;9.98;;
42668;SDS011;29384;42.028;21.388;2022-11-02T10:44:08;27.77;;;10.40;;
42668;SDS011;29384;42.028;21.388;2022-11-02T10:49:57;48.60;;;12.75;;
42668;SDS011;29384;42.028;21.388;2022-11-02T10:52:39;20.77;;;9.60;;
42668;SDS011;29384;42.028;21.388;2022-11-02T10:55:20;26.48;;;9.93;;
42668;SDS011;29384;42.028;21.388;2022-11-02T10:57:51;23.92;;;9.77;;
42668;SDS011;29384;42.028;21.388;2022-11-02T11:00:30;22.77;;;9.75;;
42668;SDS011;29384;42.028;21.388;2022-11-02T11:03:07;24.60;;;9.60;;
42668;SDS011;29384;42.028;21.388;2022-11-02T11:05:42;26.05;;;10.10;;
42668;SDS011;29384;42.028;21.388;2022-11-02T11:13:39;23.52;;;9.20;;
42668;SDS011;29384;42.028;21.388;2022-11-02T11:16:06;20.48;;;8.88;;
42668;SDS011;29384;42.028;21.388;2022-11-02T11:18:33;24.65;;;8.13;;
42668;SDS011;29384;42.028;21.388;2022-11-02T11:20:58;32.38;;;9.23;;
42668;SDS011;29384;42.028;21.388;2022-11-02T11:23:25;16.60;;;7.50;;
42668;SDS011;29384;42.028;21.388;2022-11-02T11:28:30;26.45;;;9.68;;
42668;SDS011;29384;42.028;21.388;2022-11-02T11:31:09;14.93;;;8.55;;
42668;SDS011;29384;42.028;21.388;2022-11-02T11:33:42;34.72;;;8.00;;
42668;SDS011;29384;42.028;21.388;2022-11-02T11:36:19;16.98;;;8.07;;
42668;SDS011;29384;42.028;21.388;2022-11-02T11:38:46;24.42;;;9.18;;
42668;SDS011;29384;42.028;21.388;2022-11-02T11:41:14;25.48;;;9.68;;
42668;SDS011;29384;42.028;21.388;2022-11-02T11:43:41;31.08;;;9.57;;
42668;SDS011;29384;42.028;21.388;2022-11-02T11:46:09;19.83;;;8.07;;
42668;SDS011;29384;42.028;21.388;2022-11-02T11:48:45;14.93;;;7.32;;
42668;SDS011;29384;42.028;21.388;2022-11-02T11:56:47;17.40;;;8.32;;
42668;SDS011;29384;42.028;21.388;2022-11-02T11:59:28;18.20;;;8.65;;
42668;SDS011;29384;42.028;21.388;2022-11-02T12:01:58;34.83;;;10.60;;
42668;SDS011;29384;42.028;21.388;2022-11-02T12:04:32;23.67;;;8.07;;
42668;SDS011;29384;42.028;21.388;2022-11-02T12:09:58;17.55;;;6.97;;
42668;SDS011;29384;42.028;21.388;2022-11-02T12:20:25;17.98;;;7.78;;
42668;SDS011;29384;42.028;21.388;2022-11-02T12:26:37;25.77;;;8.55;;
42668;SDS011;29384;42.028;21.388;2022-11-02T12:29:21;16.52;;;7.00;;
42668;SDS011;29384;42.028;21.388;2022-11-02T12:40:58;21.75;;;6.03;;
42668;SDS011;29384;42.028;21.388;2022-11-02T12:48:57;23.58;;;6.63;;
42668;SDS011;29384;42.028;21.388;2022-11-02T12:51:29;24.95;;;6.45;;
42668;SDS011;29384;42.028;21.388;2022-11-02T12:54:08;13.02;;;6.25;;
42668;SDS011;29384;42.028;21.388;2022-11-02T12:56:48;17.05;;;6.30;;
42668;SDS011;29384;42.028;21.388;2022-11-02T12:59:18;15.07;;;5.43;;
42668;SDS011;29384;42.028;21.388;2022-11-02T13:01:48;18.80;;;7.22;;
42668;SDS011;29384;42.028;21.388;2022-11-02T13:04:19;21.17;;;6.53;;
42668;SDS011;29384;42.028;21.388;2022-11-02T13:06:47;18.20;;;6.60;;
42668;SDS011;29384;42.028;21.388;2022-11-02T13:12:23;17.63;;;6.35;;
42668;SDS011;29384;42.028;21.388;2022-11-02T13:14:49;16.35;;;5.95;;
42668;SDS011;29384;42.028;21.388;2022-11-02T13:17:22;16.98;;;6.82;;
42668;SDS011;29384;42.028;21.388;2022-11-02T13:19:54;19.40;;;5.47;;
42668;SDS011;29384;42.028;21.388;2022-11-02T13:22:29;11.73;;;5.50;;
42668;SDS011;29384;42.028;21.388;2022-11-02T13:25:04;12.35;;;5.45;;
42668;SDS011;29384;42.028;21.388;2022-11-02T13:27:49;10.82;;;5.22;;
42668;SDS011;29384;42.028;21.388;2022-11-02T13:30:18;13.35;;;5.50;;
42668;SDS011;29384;42.028;21.388;2022-11-02T13:32:53;27.15;;;6.55;;
42668;SDS011;29384;42.028;21.388;2022-11-02T13:35:36;11.27;;;5.00;;
42668;SDS011;29384;42.028;21.388;2022-11-02T13:49:28;16.70;;;5.00;;
42668;SDS011;29384;42.028;21.388;2022-11-02T13:52:02;13.15;;;5.50;;
42668;SDS011;29384;42.028;21.388;2022-11-02T13:57:52;13.93;;;5.25;;
42668;SDS011;29384;42.028;21.388;2022-11-02T14:02:51;18.77;;;6.45;;
42668;SDS011;29384;42.028;21.388;2022-11-02T14:05:23;17.08;;;5.72;;
42668;SDS011;29384;42.028;21.388;2022-11-02T14:07:58;11.40;;;5.43;;
42668;SDS011;29384;42.028;21.388;2022-11-02T14:14:24;17.73;;;5.95;;
42668;SDS011;29384;42.028;21.388;2022-11-02T14:21:41;18.38;;;6.28;;
42668;SDS011;29384;42.028;21.388;2022-11-02T14:32:11;15.15;;;5.93;;
42668;SDS011;29384;42.028;21.388;2022-11-02T14:34:51;22.48;;;5.97;;
42668;SDS011;29384;42.028;21.388;2022-11-02T14:46:02;16.95;;;5.03;;
42668;SDS011;29384;42.028;21.388;2022-11-02T14:48:41;22.48;;;6.43;;
42668;SDS011;29384;42.028;21.388;2022-11-02T14:51:15;18.17;;;6.15;;
42668;SDS011;29384;42.028;21.388;2022-11-02T14:59:55;12.77;;;6.40;;
42668;SDS011;29384;42.028;21.388;2022-11-02T15:05:04;14.07;;;6.63;;
42668;SDS011;29384;42.028;21.388;2022-11-02T15:07:46;59.85;;;7.95;;
42668;SDS011;29384;42.028;21.388;2022-11-02T15:13:44;29.55;;;7.35;;
42668;SDS011;29384;42.028;21.388;2022-11-02T15:18:41;35.80;;;8.25;;
42668;SDS011;29384;42.028;21.388;2022-11-02T15:24:35;40.42;;;8.75;;
42668;SDS011;29384;42.028;21.388;2022-11-02T15:29:15;51.80;;;8.77;;
42668;SDS011;29384;42.028;21.388;2022-11-02T15:31:52;56.38;;;10.35;;
42668;SDS011;29384;42.028;21.388;2022-11-02T15:34:23;37.88;;;9.55;;
42668;SDS011;29384;42.028;21.388;2022-11-02T15:37:23;64.30;;;9.30;;
42668;SDS011;29384;42.028;21.388;2022-11-02T15:39:53;51.10;;;9.48;;
42668;SDS011;29384;42.028;21.388;2022-11-02T15:47:28;67.15;;;11.98;;
42668;SDS011;29384;42.028;21.388;2022-11-02T15:55:19;84.95;;;11.52;;
42668;SDS011;29384;42.028;21.388;2022-11-02T15:57:54;47.83;;;12.15;;
42668;SDS011;29384;42.028;21.388;2022-11-02T16:00:31;51.17;;;11.20;;
42668;SDS011;29384;42.028;21.388;2022-11-02T16:03:06;38.17;;;11.18;;
42668;SDS011;29384;42.028;21.388;2022-11-02T16:05:43;35.33;;;10.55;;
42668;SDS011;29384;42.028;21.388;2022-11-02T16:08:24;57.30;;;12.13;;
42668;SDS011;29384;42.028;21.388;2022-11-02T16:11:32;24.70;;;9.85;;
42668;SDS011;29384;42.028;21.388;2022-11-02T16:13:51;33.92;;;10.57;;
42668;SDS011;29384;42.028;21.388;2022-11-02T16:16:19;38.90;;;10.20;;
42668;SDS011;29384;42.028;21.388;2022-11-02T16:18:49;32.70;;;9.02;;
42668;SDS011;29384;42.028;21.388;2022-11-02T16:21:16;33.63;;;9.43;;
42668;SDS011;29384;42.028;21.388;2022-11-02T16:23:48;35.30;;;11.90;;
42668;SDS011;29384;42.028;21.388;2022-11-02T16:29:36;34.30;;;10.60;;
42668;SDS011;29384;42.028;21.388;2022-11-02T16:32:03;31.55;;;8.98;;
42668;SDS011;29384;42.028;21.388;2022-11-02T16:34:34;38.92;;;9.30;;
42668;SDS011;29384;42.028;21.388;2022-11-02T16:37:01;41.80;;;11.00;;
42668;SDS011;29384;42.028;21.388;2022-11-02T16:42:50;36.95;;;10.27;;
42668;SDS011;29384;42.028;21.388;2022-11-02T16:48:14;38.60;;;11.38;;
42668;SDS011;29384;42.028;21.388;2022-11-02T16:53:43;25.33;;;11.30;;
42668;SDS011;29384;42.028;21.388;2022-11-02T16:59:29;57.13;;;15.05;;
42668;SDS011;29384;42.028;21.388;2022-11-02T17:01:56;22.35;;;10.48;;
42668;SDS011;29384;42.028;21.388;2022-11-02T17:04:24;31.58;;;12.35;;
42668;SDS011;29384;42.028;21.388;2022-11-02T17:06:53;26.50;;;9.98;;
42668;SDS011;29384;42.028;21.388;2022-11-02T17:12:42;19.17;;;9.70;;
42668;SDS011;29384;42.028;21.388;2022-11-02T17:17:42;23.92;;;10.10;;
42668;SDS011;29384;42.028;21.388;2022-11-02T17:22:51;40.25;;;16.60;;
42668;SDS011;29384;42.028;21.388;2022-11-02T17:28:46;36.70;;;13.40;;
42668;SDS011;29384;42.028;21.388;2022-11-02T17:31:20;36.28;;;12.30;;
42668;SDS011;29384;42.028;21.388;2022-11-02T17:33:47;34.05;;;12.63;;
42668;SDS011;29384;42.028;21.388;2022-11-02T17:36:13;19.58;;;9.68;;
42668;SDS011;29384;42.028;21.388;2022-11-02T17:38:40;21.15;;;10.18;;
42668;SDS011;29384;42.028;21.388;2022-11-02T17:44:27;33.75;;;11.57;;
42668;SDS011;29384;42.028;21.388;2022-11-02T17:46:53;29.83;;;11.63;;
42668;SDS011;29384;42.028;21.388;2022-11-02T17:49:19;37.70;;;12.82;;
42668;SDS011;29384;42.028;21.388;2022-11-02T17:51:45;36.08;;;13.00;;
42668;SDS011;29384;42.028;21.388;2022-11-02T17:54:11;33.03;;;13.23;;
42668;SDS011;29384;42.028;21.388;2022-11-02T17:59:59;34.25;;;13.45;;
42668;SDS011;29384;42.028;21.388;2022-11-02T18:02:25;34.83;;;11.98;;
42668;SDS011;29384;42.028;21.388;2022-11-02T18:04:50;35.63;;;12.60;;
42668;SDS011;29384;42.028;21.388;2022-11-02T18:07:16;28.52;;;11.95;;
42668;SDS011;29384;42.028;21.388;2022-11-02T18:09:41;27.30;;;10.80;;
42668;SDS011;29384;42.028;21.388;2022-11-02T18:12:13;34.08;;;10.88;;
42668;SDS011;29384;42.028;21.388;2022-11-02T18:14:39;18.55;;;10.38;;
42668;SDS011;29384;42.028;21.388;2022-11-02T18:17:05;33.38;;;10.57;;
42668;SDS011;29384;42.028;21.388;2022-11-02T18:19:31;23.65;;;9.27;;
42668;SDS011;29384;42.028;21.388;2022-11-02T18:21:57;32.45;;;11.55;;
42668;SDS011;29384;42.028;21.388;2022-11-02T18:24:23;20.25;;;9.65;;
42668;SDS011;29384;42.028;21.388;2022-11-02T18:30:11;20.35;;;8.63;;
42668;SDS011;29384;42.028;21.388;2022-11-02T18:32:39;17.05;;;7.88;;
42668;SDS011;29384;42.028;21.388;2022-11-02T18:35:06;31.58;;;7.43;;
42668;SDS011;29384;42.028;21.388;2022-11-02T18:37:37;26.00;;;7.65;;
42668;SDS011;29384;42.028;21.388;2022-11-02T18:40:03;19.48;;;8.75;;
42668;SDS011;29384;42.028;21.388;2022-11-02T18:42:31;43.30;;;10.73;;
42668;SDS011;29384;42.028;21.388;2022-11-02T18:44:59;23.67;;;10.77;;
42668;SDS011;29384;42.028;21.388;2022-11-02T18:47:24;23.13;;;10.60;;
42668;SDS011;29384;42.028;21.388;2022-11-02T18:49:50;30.75;;;9.10;;
42668;SDS011;29384;42.028;21.388;2022-11-02T18:52:15;24.27;;;10.73;;
42668;SDS011;29384;42.028;21.388;2022-11-02T18:54:41;29.13;;;10.52;;